Kostjvkovici, Belarus
Current Conditions -  °F | °C
As of 3:00 AM on Sunday 21 Dec 2014 (Local Time) from UMGG Reporting Station
Clear Clear  
Wind Chill: 24°   Ceiling: Unl
Heat Index: 34°   Visibility: 6mi
Dew Point: 32°   Wind: 16mph
Humidity: 93%   Direction: 220°SW
Pressure: 29.65"   Gusts: 22mph
Location:  53.35°N, 32.07°E
Report Text: UMGG 210100Z 22007G10MPS CAVOK 01/M00 Q1004 R28/290050 NOSIG
Loading
Personal Weather Stations






























Interactive Weather Map New forecast layout! Learn more

10-Day Weather Forecast

Advertisements
Track Severe Weather on mobile